createdAt,value
2022-11-04T04:49:17.023Z,90
2022-11-04T04:54:17.492Z,90
2022-11-04T04:59:17.281Z,90
2022-11-04T05:04:17.498Z,90
2022-11-04T05:09:18.013Z,89
2022-11-04T05:14:17.450Z,89
2022-11-04T05:19:17.899Z,88
2022-11-04T05:24:17.211Z,88
2022-11-04T05:29:17.196Z,87
2022-11-04T05:34:17.533Z,87
2022-11-04T05:39:17.917Z,86
2022-11-04T05:44:17.880Z,86
2022-11-04T05:49:17.150Z,86
2022-11-04T05:54:17.534Z,86
2022-11-04T05:59:17.892Z,85
2022-11-04T06:04:17.438Z,85
2022-11-04T06:09:17.627Z,85
2022-11-04T06:14:19.169Z,85
2022-11-04T06:19:17.476Z,85
2022-11-04T06:24:17.457Z,85
2022-11-04T06:29:18.020Z,85
2022-11-04T06:34:17.312Z,85
2022-11-04T06:39:17.510Z,85
2022-11-04T06:44:17.757Z,85
2022-11-04T06:49:17.119Z,85
2022-11-04T06:54:17.245Z,85
2022-11-04T06:59:17.620Z,85
2022-11-04T07:04:17.940Z,85
2022-11-04T07:09:17.638Z,85
2022-11-04T07:14:17.595Z,85
2022-11-04T07:19:17.766Z,85
2022-11-04T07:24:17.972Z,85
2022-11-04T07:29:17.037Z,85
2022-11-04T07:34:17.695Z,85
2022-11-04T07:39:17.535Z,86
2022-11-04T07:44:17.922Z,86
2022-11-04T07:49:17.130Z,86
2022-11-04T07:54:17.278Z,86
2022-11-04T07:59:17.402Z,86
2022-11-04T08:04:17.550Z,86
2022-11-04T08:09:17.989Z,87
2022-11-04T08:14:17.182Z,87
2022-11-04T08:19:17.843Z,87
2022-11-04T08:24:17.695Z,87
2022-11-04T08:29:17.833Z,87
2022-11-04T08:34:17.118Z,87
2022-11-04T08:39:17.572Z,86
2022-11-04T08:44:17.869Z,86
2022-11-04T08:49:21.760Z,86
2022-11-04T08:54:17.706Z,86
2022-11-04T08:59:18.053Z,86
2022-11-04T09:04:18.009Z,86
2022-11-04T09:09:18.128Z,86
2022-11-04T09:14:18.069Z,86
2022-11-04T09:19:17.712Z,86
2022-11-04T09:24:17.664Z,86
2022-11-04T09:29:17.997Z,85
2022-11-04T09:34:17.220Z,85
2022-11-04T09:39:17.832Z,84
2022-11-04T09:44:18.132Z,84
2022-11-04T09:49:17.400Z,84
2022-11-04T09:54:17.684Z,84
2022-11-04T09:59:18.170Z,84
2022-11-04T10:04:17.609Z,84
2022-11-04T10:09:17.987Z,84
2022-11-04T10:14:18.023Z,84
2022-11-04T10:19:17.289Z,83
2022-11-04T10:24:18.024Z,83
2022-11-04T10:29:17.154Z,82
2022-11-04T10:34:17.472Z,82
2022-11-04T10:39:17.961Z,82
2022-11-04T10:44:17.285Z,82
2022-11-04T10:49:17.651Z,82
2022-11-04T10:54:17.841Z,82
2022-11-04T10:59:20.884Z,81
2022-11-04T11:04:17.527Z,81
2022-11-04T11:09:18.101Z,82
2022-11-04T11:14:17.433Z,82
2022-11-04T11:19:17.685Z,81
2022-11-04T11:24:18.113Z,81
2022-11-04T11:29:17.473Z,81
2022-11-04T11:34:17.951Z,81
2022-11-04T11:39:18.056Z,81
2022-11-04T11:44:17.547Z,81
2022-11-04T11:49:17.725Z,80
2022-11-04T11:54:18.113Z,80
2022-11-04T12:09:23.993Z,79
2022-11-04T12:14:18.192Z,79
2022-11-04T12:19:17.434Z,80
2022-11-04T12:24:17.654Z,80
2022-11-04T12:29:17.585Z,78
2022-11-04T12:34:17.992Z,78
2022-11-04T12:39:18.033Z,78
2022-11-04T12:44:18.122Z,78
2022-11-04T12:49:17.327Z,78
2022-11-04T12:54:17.601Z,78
2022-11-04T12:59:17.749Z,78
2022-11-04T13:04:17.907Z,78
2022-11-04T13:09:18.177Z,78
2022-11-04T13:14:18.184Z,78
2022-11-04T13:19:17.330Z,77
2022-11-04T13:24:17.761Z,77
2022-11-04T13:29:18.021Z,77
2022-11-04T13:34:23.604Z,77
2022-11-04T13:39:17.931Z,77
2022-11-04T13:44:17.965Z,77
2022-11-04T13:49:17.559Z,77
2022-11-04T13:54:17.971Z,77
2022-11-04T13:59:18.418Z,77
2022-11-04T14:04:17.983Z,77
2022-11-04T14:09:18.208Z,77
2022-11-04T14:14:17.467Z,77
2022-11-04T14:19:17.794Z,77
2022-11-04T14:24:17.939Z,77
2022-11-04T14:29:18.040Z,77
2022-11-04T14:34:17.634Z,77
2022-11-04T14:39:17.852Z,78
2022-11-04T14:44:18.166Z,78
2022-11-04T14:49:17.249Z,78
2022-11-04T14:54:17.735Z,78
2022-11-04T14:59:17.834Z,79
2022-11-04T15:04:18.035Z,79
2022-11-04T15:09:18.112Z,80
2022-11-04T15:14:17.656Z,80
2022-11-04T15:19:17.659Z,80
2022-11-04T15:24:18.288Z,80
2022-11-04T15:29:18.076Z,80
2022-11-04T15:34:17.709Z,80
2022-11-04T15:39:17.615Z,80
2022-11-04T15:44:17.731Z,80
2022-11-04T15:49:17.695Z,81
2022-11-04T15:54:18.093Z,81
2022-11-04T15:59:18.343Z,81
2022-11-04T16:04:17.658Z,81
2022-11-04T16:09:17.921Z,82
2022-11-04T16:14:18.235Z,82
2022-11-04T16:19:23.738Z,82
2022-11-04T16:24:17.638Z,82
2022-11-04T16:29:17.929Z,82
2022-11-04T16:34:18.259Z,82
2022-11-04T16:39:17.534Z,82
2022-11-04T16:44:17.701Z,82
2022-11-04T16:49:17.897Z,82
2022-11-04T16:54:18.264Z,82
2022-11-04T16:59:18.403Z,82
2022-11-04T17:04:17.501Z,82
2022-11-04T17:09:18.204Z,82
2022-11-04T17:14:18.040Z,82
2022-11-04T17:19:17.525Z,82
2022-11-04T17:24:17.719Z,82
2022-11-04T17:29:17.912Z,82
2022-11-04T17:34:18.328Z,82
